sensor_id;sensor_type;location;lat;lon;timestamp;P1;durP1;ratioP1;P2;durP2;ratioP2
69856;SDS011;57147;53.582;10.112;2022-07-05T00:02:12;3.25;;;0.95;;
69856;SDS011;57147;53.582;10.112;2022-07-05T00:07:15;2.85;;;1.08;;
69856;SDS011;57147;53.582;10.112;2022-07-05T00:12:16;4.47;;;1.15;;
69856;SDS011;57147;53.582;10.112;2022-07-05T00:17:17;3.15;;;0.68;;
69856;SDS011;57147;53.582;10.112;2022-07-05T00:22:20;4.30;;;1.00;;
69856;SDS011;57147;53.582;10.112;2022-07-05T00:27:21;1.58;;;1.10;;
69856;SDS011;57147;53.582;10.112;2022-07-05T00:32:22;3.95;;;1.10;;
69856;SDS011;57147;53.582;10.112;2022-07-05T00:37:25;4.53;;;1.02;;
69856;SDS011;57147;53.582;10.112;2022-07-05T00:42:26;2.65;;;0.88;;
69856;SDS011;57147;53.582;10.112;2022-07-05T00:47:26;3.53;;;1.20;;
69856;SDS011;57147;53.582;10.112;2022-07-05T00:52:29;4.82;;;1.20;;
69856;SDS011;57147;53.582;10.112;2022-07-05T00:57:31;5.75;;;0.80;;
69856;SDS011;57147;53.582;10.112;2022-07-05T01:02:33;2.63;;;0.57;;
69856;SDS011;57147;53.582;10.112;2022-07-05T01:07:36;3.63;;;1.55;;
69856;SDS011;57147;53.582;10.112;2022-07-05T01:12:37;4.85;;;0.88;;
69856;SDS011;57147;53.582;10.112;2022-07-05T01:23:12;3.58;;;0.85;;
69856;SDS011;57147;53.582;10.112;2022-07-05T01:28:13;5.05;;;1.35;;
69856;SDS011;57147;53.582;10.112;2022-07-05T01:33:14;4.05;;;1.45;;
69856;SDS011;57147;53.582;10.112;2022-07-05T01:38:17;4.07;;;1.00;;
69856;SDS011;57147;53.582;10.112;2022-07-05T01:43:18;5.07;;;1.75;;
69856;SDS011;57147;53.582;10.112;2022-07-05T01:48:19;4.78;;;0.75;;
69856;SDS011;57147;53.582;10.112;2022-07-05T01:53:26;3.10;;;0.85;;
69856;SDS011;57147;53.582;10.112;2022-07-05T01:58:28;5.18;;;0.88;;
69856;SDS011;57147;53.582;10.112;2022-07-05T02:03:30;4.32;;;1.20;;
69856;SDS011;57147;53.582;10.112;2022-07-05T02:08:34;5.97;;;1.15;;
69856;SDS011;57147;53.582;10.112;2022-07-05T02:13:34;3.25;;;1.38;;
69856;SDS011;57147;53.582;10.112;2022-07-05T02:18:35;4.40;;;1.42;;
69856;SDS011;57147;53.582;10.112;2022-07-05T02:23:38;3.05;;;0.68;;
69856;SDS011;57147;53.582;10.112;2022-07-05T02:28:39;4.25;;;1.33;;
69856;SDS011;57147;53.582;10.112;2022-07-05T02:33:40;3.58;;;1.23;;
69856;SDS011;57147;53.582;10.112;2022-07-05T02:38:43;5.15;;;1.55;;
69856;SDS011;57147;53.582;10.112;2022-07-05T02:43:44;3.60;;;1.15;;
69856;SDS011;57147;53.582;10.112;2022-07-05T02:48:44;4.93;;;2.90;;
69856;SDS011;57147;53.582;10.112;2022-07-05T02:53:48;5.03;;;1.73;;
69856;SDS011;57147;53.582;10.112;2022-07-05T02:58:48;3.83;;;1.60;;
69856;SDS011;57147;53.582;10.112;2022-07-05T03:03:49;6.60;;;2.22;;
69856;SDS011;57147;53.582;10.112;2022-07-05T03:08:52;4.63;;;2.60;;
69856;SDS011;57147;53.582;10.112;2022-07-05T03:13:53;5.88;;;2.22;;
69856;SDS011;57147;53.582;10.112;2022-07-05T03:18:53;4.55;;;1.63;;
69856;SDS011;57147;53.582;10.112;2022-07-05T03:23:57;3.70;;;1.30;;
69856;SDS011;57147;53.582;10.112;2022-07-05T03:28:58;3.40;;;0.90;;
69856;SDS011;57147;53.582;10.112;2022-07-05T03:33:58;7.65;;;1.98;;
69856;SDS011;57147;53.582;10.112;2022-07-05T03:39:02;4.93;;;1.45;;
69856;SDS011;57147;53.582;10.112;2022-07-05T03:44:03;6.53;;;1.75;;
69856;SDS011;57147;53.582;10.112;2022-07-05T03:49:04;5.25;;;2.13;;
69856;SDS011;57147;53.582;10.112;2022-07-05T03:54:07;7.30;;;2.03;;
69856;SDS011;57147;53.582;10.112;2022-07-05T03:59:08;5.38;;;1.60;;
69856;SDS011;57147;53.582;10.112;2022-07-05T04:04:08;4.10;;;1.77;;
69856;SDS011;57147;53.582;10.112;2022-07-05T04:09:12;3.53;;;1.67;;
69856;SDS011;57147;53.582;10.112;2022-07-05T04:14:12;2.88;;;1.40;;
69856;SDS011;57147;53.582;10.112;2022-07-05T04:19:13;2.92;;;1.63;;
69856;SDS011;57147;53.582;10.112;2022-07-05T04:24:16;4.15;;;1.52;;
69856;SDS011;57147;53.582;10.112;2022-07-05T04:29:17;6.70;;;2.00;;
69856;SDS011;57147;53.582;10.112;2022-07-05T04:34:18;4.25;;;2.00;;
69856;SDS011;57147;53.582;10.112;2022-07-05T04:39:21;5.45;;;3.05;;
69856;SDS011;57147;53.582;10.112;2022-07-05T04:44:21;3.78;;;2.15;;
69856;SDS011;57147;53.582;10.112;2022-07-05T04:49:22;5.55;;;2.03;;
69856;SDS011;57147;53.582;10.112;2022-07-05T04:54:25;5.28;;;2.58;;
69856;SDS011;57147;53.582;10.112;2022-07-05T04:59:26;4.65;;;1.52;;
69856;SDS011;57147;53.582;10.112;2022-07-05T05:04:27;4.60;;;0.88;;
69856;SDS011;57147;53.582;10.112;2022-07-05T05:09:30;3.58;;;1.30;;
69856;SDS011;57147;53.582;10.112;2022-07-05T05:14:31;3.78;;;0.95;;
69856;SDS011;57147;53.582;10.112;2022-07-05T05:19:31;5.50;;;1.58;;
69856;SDS011;57147;53.582;10.112;2022-07-05T05:24:34;4.80;;;1.92;;
69856;SDS011;57147;53.582;10.112;2022-07-05T05:29:35;3.83;;;0.88;;
69856;SDS011;57147;53.582;10.112;2022-07-05T05:34:35;5.45;;;1.42;;
69856;SDS011;57147;53.582;10.112;2022-07-05T05:39:39;5.43;;;1.13;;
69856;SDS011;57147;53.582;10.112;2022-07-05T05:44:39;4.63;;;0.98;;
69856;SDS011;57147;53.582;10.112;2022-07-05T05:49:40;3.78;;;1.20;;
69856;SDS011;57147;53.582;10.112;2022-07-05T05:54:43;3.92;;;1.10;;
69856;SDS011;57147;53.582;10.112;2022-07-05T05:59:44;5.03;;;1.55;;
69856;SDS011;57147;53.582;10.112;2022-07-05T06:04:44;3.65;;;1.20;;
69856;SDS011;57147;53.582;10.112;2022-07-05T06:09:48;5.20;;;1.10;;
69856;SDS011;57147;53.582;10.112;2022-07-05T06:14:48;3.92;;;0.65;;
69856;SDS011;57147;53.582;10.112;2022-07-05T06:19:49;7.85;;;1.00;;
69856;SDS011;57147;53.582;10.112;2022-07-05T06:24:52;2.95;;;0.68;;
69856;SDS011;57147;53.582;10.112;2022-07-05T06:29:52;4.50;;;1.70;;
69856;SDS011;57147;53.582;10.112;2022-07-05T06:34:53;1.65;;;0.45;;
69856;SDS011;57147;53.582;10.112;2022-07-05T06:39:56;5.15;;;2.00;;
69856;SDS011;57147;53.582;10.112;2022-07-05T06:44:57;4.97;;;0.80;;
69856;SDS011;57147;53.582;10.112;2022-07-05T06:49:58;3.40;;;0.88;;
69856;SDS011;57147;53.582;10.112;2022-07-05T06:55:03;3.83;;;0.60;;
69856;SDS011;57147;53.582;10.112;2022-07-05T07:00:05;2.72;;;1.85;;
69856;SDS011;57147;53.582;10.112;2022-07-05T07:05:08;3.83;;;0.60;;
69856;SDS011;57147;53.582;10.112;2022-07-05T07:10:11;3.15;;;0.77;;
69856;SDS011;57147;53.582;10.112;2022-07-05T07:15:12;4.47;;;0.82;;
69856;SDS011;57147;53.582;10.112;2022-07-05T07:20:12;2.00;;;0.63;;
69856;SDS011;57147;53.582;10.112;2022-07-05T07:25:16;4.57;;;0.90;;
69856;SDS011;57147;53.582;10.112;2022-07-05T07:30:17;3.92;;;1.15;;
69856;SDS011;57147;53.582;10.112;2022-07-05T07:35:22;3.28;;;0.45;;
69856;SDS011;57147;53.582;10.112;2022-07-05T07:40:26;2.78;;;0.45;;
69856;SDS011;57147;53.582;10.112;2022-07-05T07:45:26;3.28;;;0.52;;
69856;SDS011;57147;53.582;10.112;2022-07-05T07:50:27;2.92;;;0.40;;
69856;SDS011;57147;53.582;10.112;2022-07-05T07:55:30;3.20;;;0.63;;
69856;SDS011;57147;53.582;10.112;2022-07-05T08:00:31;3.05;;;0.50;;
69856;SDS011;57147;53.582;10.112;2022-07-05T08:05:32;4.78;;;1.05;;
69856;SDS011;57147;53.582;10.112;2022-07-05T08:10:35;3.00;;;0.30;;
69856;SDS011;57147;53.582;10.112;2022-07-05T08:15:36;1.33;;;0.40;;
69856;SDS011;57147;53.582;10.112;2022-07-05T08:20:37;1.58;;;0.28;;
69856;SDS011;57147;53.582;10.112;2022-07-05T08:25:40;1.58;;;0.43;;
69856;SDS011;57147;53.582;10.112;2022-07-05T08:30:41;0.98;;;0.40;;
69856;SDS011;57147;53.582;10.112;2022-07-05T08:35:42;0.93;;;0.57;;
69856;SDS011;57147;53.582;10.112;2022-07-05T08:40:46;1.08;;;0.80;;
69856;SDS011;57147;53.582;10.112;2022-07-05T08:45:50;0.77;;;0.43;;
69856;SDS011;57147;53.582;10.112;2022-07-05T08:50:53;1.25;;;0.43;;
69856;SDS011;57147;53.582;10.112;2022-07-05T08:55:58;1.10;;;0.20;;
69856;SDS011;57147;53.582;10.112;2022-07-05T09:00:59;1.05;;;0.43;;
69856;SDS011;57147;53.582;10.112;2022-07-05T09:06:00;1.27;;;0.40;;
69856;SDS011;57147;53.582;10.112;2022-07-05T09:11:05;0.85;;;0.20;;
69856;SDS011;57147;53.582;10.112;2022-07-05T09:16:07;1.45;;;0.15;;
69856;SDS011;57147;53.582;10.112;2022-07-05T09:21:12;2.13;;;0.40;;
69856;SDS011;57147;53.582;10.112;2022-07-05T09:26:17;1.48;;;0.52;;
69856;SDS011;57147;53.582;10.112;2022-07-05T09:31:25;0.40;;;0.15;;
69856;SDS011;57147;53.582;10.112;2022-07-05T09:36:28;1.70;;;0.73;;
69856;SDS011;57147;53.582;10.112;2022-07-05T09:41:31;2.70;;;0.80;;
69856;SDS011;57147;53.582;10.112;2022-07-05T09:46:32;3.30;;;0.63;;
69856;SDS011;57147;53.582;10.112;2022-07-05T09:51:46;1.33;;;0.35;;
69856;SDS011;57147;53.582;10.112;2022-07-05T09:56:50;1.70;;;0.22;;
69856;SDS011;57147;53.582;10.112;2022-07-05T10:01:50;8.45;;;1.42;;
69856;SDS011;57147;53.582;10.112;2022-07-05T10:06:52;4.93;;;0.45;;
69856;SDS011;57147;53.582;10.112;2022-07-05T10:11:55;4.18;;;0.52;;
69856;SDS011;57147;53.582;10.112;2022-07-05T10:16:57;2.15;;;0.52;;
69856;SDS011;57147;53.582;10.112;2022-07-05T10:22:00;1.27;;;0.00;;
69856;SDS011;57147;53.582;10.112;2022-07-05T10:27:06;3.90;;;0.40;;
69856;SDS011;57147;53.582;10.112;2022-07-05T10:32:08;2.22;;;0.55;;
69856;SDS011;57147;53.582;10.112;2022-07-05T10:37:09;2.33;;;0.30;;
69856;SDS011;57147;53.582;10.112;2022-07-05T10:42:12;1.15;;;0.03;;
69856;SDS011;57147;53.582;10.112;2022-07-05T10:47:14;1.75;;;0.20;;
69856;SDS011;57147;53.582;10.112;2022-07-05T10:52:21;2.25;;;0.20;;
69856;SDS011;57147;53.582;10.112;2022-07-05T10:57:25;4.45;;;0.20;;
69856;SDS011;57147;53.582;10.112;2022-07-05T11:02:25;2.92;;;0.25;;
69856;SDS011;57147;53.582;10.112;2022-07-05T11:12:59;2.65;;;0.30;;
69856;SDS011;57147;53.582;10.112;2022-07-05T11:18:35;0.20;;;0.20;;
69856;SDS011;57147;53.582;10.112;2022-07-05T11:23:39;2.03;;;0.35;;
69856;SDS011;57147;53.582;10.112;2022-07-05T11:28:46;1.80;;;0.30;;
69856;SDS011;57147;53.582;10.112;2022-07-05T11:33:47;1.88;;;0.38;;
69856;SDS011;57147;53.582;10.112;2022-07-05T11:44:10;1.50;;;0.38;;
69856;SDS011;57147;53.582;10.112;2022-07-05T11:49:11;1.27;;;0.40;;
69856;SDS011;57147;53.582;10.112;2022-07-05T11:54:11;1.38;;;0.93;;
69856;SDS011;57147;53.582;10.112;2022-07-05T11:59:21;0.80;;;0.25;;
69856;SDS011;57147;53.582;10.112;2022-07-05T12:04:23;2.63;;;0.60;;
69856;SDS011;57147;53.582;10.112;2022-07-05T12:09:24;1.70;;;0.10;;
69856;SDS011;57147;53.582;10.112;2022-07-05T12:14:30;1.17;;;0.35;;
69856;SDS011;57147;53.582;10.112;2022-07-05T12:19:31;1.95;;;0.15;;
69856;SDS011;57147;53.582;10.112;2022-07-05T12:24:32;1.17;;;0.05;;
69856;SDS011;57147;53.582;10.112;2022-07-05T12:29:36;1.08;;;0.10;;
69856;SDS011;57147;53.582;10.112;2022-07-05T12:34:37;1.67;;;0.30;;
69856;SDS011;57147;53.582;10.112;2022-07-05T12:39:38;1.40;;;0.10;;
69856;SDS011;57147;53.582;10.112;2022-07-05T12:44:41;2.05;;;0.32;;
69856;SDS011;57147;53.582;10.112;2022-07-05T12:49:54;4.43;;;0.10;;
69856;SDS011;57147;53.582;10.112;2022-07-05T12:55:09;1.50;;;0.40;;
69856;SDS011;57147;53.582;10.112;2022-07-05T13:00:13;3.55;;;0.70;;
69856;SDS011;57147;53.582;10.112;2022-07-05T13:05:19;1.50;;;0.55;;
69856;SDS011;57147;53.582;10.112;2022-07-05T13:10:21;1.08;;;0.20;;
69856;SDS011;57147;53.582;10.112;2022-07-05T13:15:25;1.13;;;0.30;;
69856;SDS011;57147;53.582;10.112;2022-07-05T13:20:26;2.50;;;0.30;;
69856;SDS011;57147;53.582;10.112;2022-07-05T13:25:26;1.70;;;0.00;;
69856;SDS011;57147;53.582;10.112;2022-07-05T13:30:30;1.70;;;0.35;;
69856;SDS011;57147;53.582;10.112;2022-07-05T13:35:30;1.90;;;0.22;;
69856;SDS011;57147;53.582;10.112;2022-07-05T13:40:31;3.90;;;0.65;;
69856;SDS011;57147;53.582;10.112;2022-07-05T13:45:34;4.72;;;0.30;;
69856;SDS011;57147;53.582;10.112;2022-07-05T13:50:35;2.63;;;0.20;;
69856;SDS011;57147;53.582;10.112;2022-07-05T13:55:36;1.92;;;0.63;;
69856;SDS011;57147;53.582;10.112;2022-07-05T14:00:39;0.93;;;0.30;;
69856;SDS011;57147;53.582;10.112;2022-07-05T14:05:39;1.80;;;0.65;;
69856;SDS011;57147;53.582;10.112;2022-07-05T14:10:40;1.15;;;0.35;;
69856;SDS011;57147;53.582;10.112;2022-07-05T14:15:43;3.53;;;0.80;;
69856;SDS011;57147;53.582;10.112;2022-07-05T14:20:44;3.58;;;0.52;;
69856;SDS011;57147;53.582;10.112;2022-07-05T14:25:46;4.25;;;0.45;;
69856;SDS011;57147;53.582;10.112;2022-07-05T14:30:49;0.40;;;0.20;;
69856;SDS011;57147;53.582;10.112;2022-07-05T14:35:49;2.25;;;0.17;;
69856;SDS011;57147;53.582;10.112;2022-07-05T14:40:50;2.70;;;0.40;;
69856;SDS011;57147;53.582;10.112;2022-07-05T14:45:53;2.00;;;0.45;;
69856;SDS011;57147;53.582;10.112;2022-07-05T14:50:55;2.60;;;0.85;;
69856;SDS011;57147;53.582;10.112;2022-07-05T14:55:55;4.82;;;0.43;;
69856;SDS011;57147;53.582;10.112;2022-07-05T15:00:59;2.92;;;0.40;;
69856;SDS011;57147;53.582;10.112;2022-07-05T15:06:00;2.97;;;1.58;;
69856;SDS011;57147;53.582;10.112;2022-07-05T15:11:00;1.48;;;0.22;;
69856;SDS011;57147;53.582;10.112;2022-07-05T15:16:04;2.17;;;0.40;;
69856;SDS011;57147;53.582;10.112;2022-07-05T15:21:05;1.83;;;0.32;;
69856;SDS011;57147;53.582;10.112;2022-07-05T15:26:06;1.48;;;0.20;;
69856;SDS011;57147;53.582;10.112;2022-07-05T15:31:09;1.95;;;0.40;;
69856;SDS011;57147;53.582;10.112;2022-07-05T15:36:09;1.98;;;0.73;;
69856;SDS011;57147;53.582;10.112;2022-07-05T15:41:10;2.42;;;0.28;;
69856;SDS011;57147;53.582;10.112;2022-07-05T15:46:13;4.82;;;1.13;;
69856;SDS011;57147;53.582;10.112;2022-07-05T15:51:14;2.15;;;0.52;;
69856;SDS011;57147;53.582;10.112;2022-07-05T15:56:16;3.05;;;0.70;;
69856;SDS011;57147;53.582;10.112;2022-07-05T16:01:19;1.27;;;0.50;;
69856;SDS011;57147;53.582;10.112;2022-07-05T16:06:20;2.22;;;0.30;;
69856;SDS011;57147;53.582;10.112;2022-07-05T16:11:20;1.58;;;0.28;;
69856;SDS011;57147;53.582;10.112;2022-07-05T16:16:24;4.25;;;0.40;;
69856;SDS011;57147;53.582;10.112;2022-07-05T16:21:25;2.10;;;0.68;;
69856;SDS011;57147;53.582;10.112;2022-07-05T16:26:25;3.40;;;0.40;;
69856;SDS011;57147;53.582;10.112;2022-07-05T16:31:29;4.28;;;0.52;;
69856;SDS011;57147;53.582;10.112;2022-07-05T16:36:30;2.78;;;0.52;;
69856;SDS011;57147;53.582;10.112;2022-07-05T16:41:30;3.47;;;0.32;;
69856;SDS011;57147;53.582;10.112;2022-07-05T16:46:34;4.43;;;0.63;;
69856;SDS011;57147;53.582;10.112;2022-07-05T16:51:36;3.17;;;0.68;;
69856;SDS011;57147;53.582;10.112;2022-07-05T16:56:36;4.03;;;0.73;;
69856;SDS011;57147;53.582;10.112;2022-07-05T17:01:39;1.73;;;0.40;;
69856;SDS011;57147;53.582;10.112;2022-07-05T17:06:40;3.95;;;0.63;;
69856;SDS011;57147;53.582;10.112;2022-07-05T17:11:41;1.85;;;0.40;;
69856;SDS011;57147;53.582;10.112;2022-07-05T17:16:45;3.53;;;0.50;;
69856;SDS011;57147;53.582;10.112;2022-07-05T17:21:45;2.22;;;0.65;;
69856;SDS011;57147;53.582;10.112;2022-07-05T17:26:46;2.85;;;0.13;;
69856;SDS011;57147;53.582;10.112;2022-07-05T17:31:49;3.30;;;0.43;;
69856;SDS011;57147;53.582;10.112;2022-07-05T17:36:52;4.35;;;0.98;;
69856;SDS011;57147;53.582;10.112;2022-07-05T17:41:53;4.22;;;0.65;;
69856;SDS011;57147;53.582;10.112;2022-07-05T17:46:56;2.85;;;0.15;;
69856;SDS011;57147;53.582;10.112;2022-07-05T17:51:57;4.55;;;0.30;;
69856;SDS011;57147;53.582;10.112;2022-07-05T17:56:58;2.72;;;0.60;;
69856;SDS011;57147;53.582;10.112;2022-07-05T18:02:01;3.03;;;0.40;;
69856;SDS011;57147;53.582;10.112;2022-07-05T18:07:02;3.45;;;0.45;;
69856;SDS011;57147;53.582;10.112;2022-07-05T18:12:03;2.80;;;0.60;;
69856;SDS011;57147;53.582;10.112;2022-07-05T18:17:07;1.92;;;0.38;;
69856;SDS011;57147;53.582;10.112;2022-07-05T18:22:08;4.00;;;0.45;;
69856;SDS011;57147;53.582;10.112;2022-07-05T18:27:08;2.88;;;0.70;;
69856;SDS011;57147;53.582;10.112;2022-07-05T18:32:11;3.50;;;0.82;;
69856;SDS011;57147;53.582;10.112;2022-07-05T18:37:12;4.32;;;0.50;;
69856;SDS011;57147;53.582;10.112;2022-07-05T18:42:13;3.30;;;0.90;;
69856;SDS011;57147;53.582;10.112;2022-07-05T18:47:16;2.97;;;0.55;;
69856;SDS011;57147;53.582;10.112;2022-07-05T18:52:17;4.13;;;0.75;;
69856;SDS011;57147;53.582;10.112;2022-07-05T18:57:18;5.15;;;0.55;;
69856;SDS011;57147;53.582;10.112;2022-07-05T19:02:21;3.72;;;0.70;;
69856;SDS011;57147;53.582;10.112;2022-07-05T19:07:22;3.83;;;0.60;;
69856;SDS011;57147;53.582;10.112;2022-07-05T19:12:22;2.40;;;0.52;;
69856;SDS011;57147;53.582;10.112;2022-07-05T19:17:26;2.28;;;0.75;;
69856;SDS011;57147;53.582;10.112;2022-07-05T19:22:26;3.00;;;0.47;;
69856;SDS011;57147;53.582;10.112;2022-07-05T19:27:27;4.57;;;0.30;;
69856;SDS011;57147;53.582;10.112;2022-07-05T19:32:30;5.47;;;0.50;;
69856;SDS011;57147;53.582;10.112;2022-07-05T19:37:31;5.95;;;0.88;;
69856;SDS011;57147;53.582;10.112;2022-07-05T19:42:32;3.42;;;0.40;;
69856;SDS011;57147;53.582;10.112;2022-07-05T19:47:35;3.92;;;0.38;;
69856;SDS011;57147;53.582;10.112;2022-07-05T19:52:37;2.78;;;0.65;;
69856;SDS011;57147;53.582;10.112;2022-07-05T19:57:37;2.75;;;0.75;;
69856;SDS011;57147;53.582;10.112;2022-07-05T20:02:40;3.97;;;1.58;;
69856;SDS011;57147;53.582;10.112;2022-07-05T20:07:41;3.28;;;0.93;;
69856;SDS011;57147;53.582;10.112;2022-07-05T20:12:42;3.33;;;1.42;;
69856;SDS011;57147;53.582;10.112;2022-07-05T20:17:45;4.18;;;0.73;;
69856;SDS011;57147;53.582;10.112;2022-07-05T20:22:47;4.90;;;1.27;;
69856;SDS011;57147;53.582;10.112;2022-07-05T20:27:47;6.55;;;0.75;;
69856;SDS011;57147;53.582;10.112;2022-07-05T20:32:51;3.70;;;2.55;;
69856;SDS011;57147;53.582;10.112;2022-07-05T20:37:51;3.22;;;1.23;;
69856;SDS011;57147;53.582;10.112;2022-07-05T20:42:52;3.75;;;0.98;;
69856;SDS011;57147;53.582;10.112;2022-07-05T20:47:55;5.90;;;0.32;;
69856;SDS011;57147;53.582;10.112;2022-07-05T20:52:56;5.28;;;0.82;;
69856;SDS011;57147;53.582;10.112;2022-07-05T20:57:57;6.53;;;0.88;;
69856;SDS011;57147;53.582;10.112;2022-07-05T21:03:00;7.55;;;1.52;;
69856;SDS011;57147;53.582;10.112;2022-07-05T21:08:01;3.33;;;0.88;;
69856;SDS011;57147;53.582;10.112;2022-07-05T21:13:01;3.78;;;0.90;;
69856;SDS011;57147;53.582;10.112;2022-07-05T21:18:05;3.60;;;0.65;;
69856;SDS011;57147;53.582;10.112;2022-07-05T21:23:05;4.40;;;0.25;;
69856;SDS011;57147;53.582;10.112;2022-07-05T21:28:06;2.55;;;0.57;;
69856;SDS011;57147;53.582;10.112;2022-07-05T21:33:09;4.40;;;0.73;;
69856;SDS011;57147;53.582;10.112;2022-07-05T21:38:13;3.55;;;1.48;;
69856;SDS011;57147;53.582;10.112;2022-07-05T21:43:14;5.85;;;0.40;;
69856;SDS011;57147;53.582;10.112;2022-07-05T21:48:18;6.85;;;0.52;;
69856;SDS011;57147;53.582;10.112;2022-07-05T21:53:19;6.35;;;0.88;;
69856;SDS011;57147;53.582;10.112;2022-07-05T21:58:19;3.55;;;0.57;;
69856;SDS011;57147;53.582;10.112;2022-07-05T22:03:23;3.88;;;0.63;;
69856;SDS011;57147;53.582;10.112;2022-07-05T22:08:23;5.60;;;0.73;;
69856;SDS011;57147;53.582;10.112;2022-07-05T22:13:24;3.97;;;1.63;;
69856;SDS011;57147;53.582;10.112;2022-07-05T22:18:27;2.65;;;0.75;;
69856;SDS011;57147;53.582;10.112;2022-07-05T22:23:28;5.05;;;0.60;;
69856;SDS011;57147;53.582;10.112;2022-07-05T22:28:29;4.38;;;0.47;;
69856;SDS011;57147;53.582;10.112;2022-07-05T22:33:32;3.70;;;0.57;;
69856;SDS011;57147;53.582;10.112;2022-07-05T22:38:33;4.47;;;1.67;;
69856;SDS011;57147;53.582;10.112;2022-07-05T22:43:33;4.43;;;0.98;;
69856;SDS011;57147;53.582;10.112;2022-07-05T22:48:37;4.70;;;0.43;;
69856;SDS011;57147;53.582;10.112;2022-07-05T22:53:37;4.30;;;1.13;;
69856;SDS011;57147;53.582;10.112;2022-07-05T22:58:38;2.88;;;0.75;;
69856;SDS011;57147;53.582;10.112;2022-07-05T23:03:41;7.68;;;0.75;;
69856;SDS011;57147;53.582;10.112;2022-07-05T23:08:42;5.97;;;0.38;;
69856;SDS011;57147;53.582;10.112;2022-07-05T23:13:42;2.80;;;0.52;;
69856;SDS011;57147;53.582;10.112;2022-07-05T23:18:46;5.13;;;0.68;;
69856;SDS011;57147;53.582;10.112;2022-07-05T23:23:46;4.47;;;0.45;;
69856;SDS011;57147;53.582;10.112;2022-07-05T23:28:47;5.20;;;0.45;;
69856;SDS011;57147;53.582;10.112;2022-07-05T23:33:50;4.45;;;0.85;;
69856;SDS011;57147;53.582;10.112;2022-07-05T23:38:51;5.10;;;1.17;;
69856;SDS011;57147;53.582;10.112;2022-07-05T23:43:51;6.28;;;0.60;;
69856;SDS011;57147;53.582;10.112;2022-07-05T23:48:55;5.40;;;0.63;;
69856;SDS011;57147;53.582;10.112;2022-07-05T23:53:56;3.72;;;0.57;;
69856;SDS011;57147;53.582;10.112;2022-07-05T23:58:57;3.30;;;2.03;;
